Auberry, California
Current Conditions -  °F | °C
As of 5:53 PM on Friday 31 Oct 2014 (Local Time) from KFAT Reporting Station
Broken Clouds Broken Clouds  
Wind Chill: 73°   Ceiling: 6500
Heat Index: 73°   Visibility: 10mi
Dew Point: 46°   Wind: 14mph
Humidity: 38%   Direction: 240°WSW
Pressure: 29.74"   Gusts: NA
Location:  37.08°N, 119.49°W
Report Text: KFAT 010053Z 24012KT 10SM BKN065 BKN080 23/08 A2974 RMK AO2 SLP067 T02280078
Loading
Personal Weather Stations






























Interactive Weather Map
Tropical Storm Tracking
New forecast layout! Learn more

10-Day Weather Forecast

Advertisements
Track Severe Weather on mobile